BIENTÔT MET'MAP
version 2.0 !

Prévue avant fin octobre,
la nouvelle version sera
plus belle, plus complète
et hébergée sur un serveur
3 fois plus puissant...
et toujours gratuite !


Pas compatible ?
Essayez la version Mobile !

SE CONNECTER : | S'inscrire | Disclaimer | Découvrir Orbifly |
Code OACI :
Lgende : VFR VFR Marginal IFR IFR Intensif IFR Trs Intensif
Visi :
Plafond :
>= 8 km
>= 3000ft
5 8 km
1000 3000 ft
1500m 5 km
500 1000 ft
800 1500m
200 500 ft
< 800m
< 200 ft

METAR - LIBP Abruzzo Pescara - 27 Jan 2020 22:58 UTC
Data Sources :     NOAA   


- Altitude de l'aérodrome : 48 ft
- Code IATA : PSR
- Pas de NOTAMs connus.


LIBP - Abruzzo Pescara

Dernier METAR connu : 2015/08/11 07:50 LIBP 110750Z VRB01KT 9999 FEW020 SCT040 24/21 Q1013
TAF TAF LIBP
Valide du 27 à 18h jusqu'au 28 à 18h UTC


271700Z 2718/2818 VRB03KT 9999 SCT020
BECMG 2718/2721 3000 BR

Source NOAA


MET'MAP, la Météo Aéronautique d'un coup d'oeil ! - Copyright ORBIFLY Décembre 2007

Développement & Programmation : Alexandra Zaïnal
Co-Développement : Marc-Olivier Méhu
Soutien technique & logistique : Manuel Goepfert
Conception & Financement : Baudouin d'Aumeries